首页
METAR-TAF:

METAR-TAF

机场 :

Horn Island, 澳大利亚

纬度: 10-35-11S, 经度: 142-07-24E, 海拔: 13米

当前天气观测

该预报发布于34分钟前的01:30 UTC
风速15节,风向东南
温度 29°C
湿度 74%
气压 1015 hPa
能见度10公里或以上
阴天层高于5100英尺

METAR: YHID 310130Z AUTO 13015KT 9999 // OVC051 29/24 Q1015 RF00.0/000.0

时间: 12:04 (02:04 UTC)

预报

该预报发布于2小时和53分钟前的23:11 UTC
预报有效从30日的 23点(UTC)到 01日的 00点(UTC)
风速16节,风向东转东南
能见度10公里或以上
散云层高于2500英尺
从 31日的 0900点(UTC)
风速10节,风向南转南东
能见度10公里或以上
散云层高于1200英尺
散云层高于4000英尺

TAF: YHID 302311Z 3023/0100 12016KT 9999 SCT025 FM310900 15010KT 9999 SCT012 SCT040

超过4000个机场的气象观测和天气预报(METAR&TAF报告)。

可查询的气象台以黄色和红色小点在地图上表示。

将鼠标移到小点上方,可查看气象台名称。

然后点击查看天气观测和预报。

如需切换地图:点击带黑十字的绿色按钮放大地图;点击带横线的绿色按钮缩小地图;或者点击绿色箭头查看邻近地区的地图。


METAR-TAF: